createdAt,value
2022-08-07T00:02:36.528Z,96.03
2022-08-07T00:02:53.523Z,96.14
2022-08-07T00:03:48.105Z,96.23
2022-08-07T00:04:50.291Z,96.23
2022-08-07T00:05:48.619Z,96.28
2022-08-07T00:06:51.965Z,96.18
2022-08-07T00:07:50.662Z,96.38
2022-08-07T00:08:50.415Z,96.48
2022-08-07T00:10:04.913Z,96.69
2022-08-07T00:10:57.579Z,96.79
2022-08-07T00:11:55.443Z,96.94
2022-08-07T00:13:00.519Z,97.04
2022-08-07T00:13:51.834Z,96.73
2022-08-07T00:14:51.164Z,96.78
2022-08-07T00:15:51.730Z,96.98
2022-08-07T00:16:53.638Z,97.39
2022-08-07T00:17:51.962Z,97.39
2022-08-07T00:18:54.155Z,97.49
2022-08-07T00:20:01.589Z,97.70
2022-08-07T00:20:56.808Z,97.60
2022-08-07T00:21:57.004Z,97.60
2022-08-07T00:22:54.354Z,97.49
2022-08-07T00:23:53.686Z,97.60
2022-08-07T00:24:53.976Z,97.85
2022-08-07T00:26:00.168Z,98.05
2022-08-07T00:27:06.450Z,97.85
2022-08-07T00:27:56.666Z,97.54
2022-08-07T00:28:55.733Z,97.54
2022-08-07T00:29:55.417Z,97.44
2022-08-07T00:30:57.620Z,97.38
2022-08-07T00:31:58.951Z,97.38
2022-08-07T00:32:58.168Z,97.63
2022-08-07T00:33:56.465Z,97.74
2022-08-07T00:34:56.728Z,97.63
2022-08-07T00:35:56.987Z,97.57
2022-08-07T00:37:01.170Z,97.52
2022-08-07T00:37:57.543Z,97.92
2022-08-07T00:38:57.990Z,98.24
2022-08-07T00:39:58.143Z,98.54
2022-08-07T00:40:58.442Z,98.49
2022-08-07T00:42:02.007Z,98.69
2022-08-07T00:42:59.059Z,98.90
2022-08-07T00:44:02.817Z,99.10
2022-08-07T00:44:59.579Z,99.25
2022-08-07T00:45:59.884Z,99.25
2022-08-07T00:47:02.878Z,99.25
2022-08-07T00:48:10.260Z,99.55
2022-08-07T00:49:02.068Z,99.76
2022-08-07T00:50:21.367Z,99.86
2022-08-07T00:51:02.270Z,99.96
2022-08-07T00:52:03.563Z,99.99
2022-08-07T00:53:03.791Z,99.99
2022-08-07T00:54:04.970Z,99.99
2022-08-07T00:55:04.733Z,99.99
2022-08-07T00:56:03.910Z,99.99
2022-08-07T00:57:04.544Z,99.99
2022-08-07T00:58:05.261Z,99.99
2022-08-07T00:59:03.562Z,99.99
2022-08-07T01:00:03.873Z,99.99
2022-08-07T01:01:04.203Z,99.99
2022-08-07T01:02:08.848Z,99.99
2022-08-07T01:03:09.134Z,99.99
2022-08-07T01:04:05.066Z,99.99
2022-08-07T01:05:05.412Z,99.99
2022-08-07T01:06:07.457Z,99.99
2022-08-07T01:07:07.900Z,99.99
2022-08-07T01:08:09.460Z,99.99
2022-08-07T01:09:06.493Z,99.99
2022-08-07T01:10:11.488Z,99.60
2022-08-07T01:12:04.537Z,99.65
2022-08-07T01:12:28.708Z,99.65
2022-08-07T01:13:12.197Z,99.75
2022-08-07T01:14:09.915Z,99.75
2022-08-07T01:15:11.902Z,99.85
2022-08-07T01:16:09.640Z,99.79
2022-08-07T01:17:10.831Z,99.90
2022-08-07T01:18:10.210Z,99.90
2022-08-07T01:19:19.119Z,99.90
2022-08-07T01:20:17.024Z,99.99
2022-08-07T01:21:22.505Z,99.99
2022-08-07T01:22:16.233Z,99.99
2022-08-07T01:23:13.194Z,99.99
2022-08-07T01:24:12.882Z,99.99
2022-08-07T01:25:53.500Z,99.99
2022-08-07T01:26:12.457Z,99.99
2022-08-07T01:27:19.468Z,99.99
2022-08-07T01:28:14.058Z,99.99
2022-08-07T01:29:12.373Z,99.99
2022-08-07T01:30:14.508Z,99.99
2022-08-07T01:31:15.475Z,99.99
2022-08-07T01:32:13.708Z,99.99
2022-08-07T01:33:14.350Z,99.99
2022-08-07T01:34:15.068Z,99.99
2022-08-07T01:35:17.285Z,99.99
2022-08-07T01:36:15.131Z,99.99
2022-08-07T01:37:15.233Z,99.99
2022-08-07T01:38:25.072Z,99.99
2022-08-07T01:39:15.972Z,99.99
2022-08-07T01:40:17.108Z,99.99
2022-08-07T01:41:25.877Z,99.99
2022-08-07T01:42:38.411Z,99.99
2022-08-07T01:43:19.067Z,99.99
2022-08-07T01:44:16.335Z,99.99
2022-08-07T01:45:22.776Z,99.99
2022-08-07T01:46:17.949Z,99.99
2022-08-07T01:48:19.665Z,99.68
2022-08-07T01:48:29.154Z,99.38
2022-08-07T01:49:18.818Z,99.58
2022-08-07T01:50:28.580Z,99.48
2022-08-07T01:51:58.656Z,99.58
2022-08-07T01:52:19.671Z,99.13
2022-08-07T01:53:20.928Z,98.93
2022-08-07T01:54:37.007Z,98.52
2022-08-07T01:55:24.105Z,98.31
2022-08-07T01:56:19.913Z,98.11
2022-08-07T01:57:30.877Z,98.27
2022-08-07T01:58:29.312Z,97.86
2022-08-07T01:59:21.904Z,97.65
2022-08-07T02:00:29.024Z,97.65
2022-08-07T02:02:00.139Z,97.55
2022-08-07T02:02:33.040Z,97.65
2022-08-07T02:03:26.554Z,97.75
2022-08-07T02:04:23.246Z,97.86
2022-08-07T02:05:47.725Z,97.90
2022-08-07T02:06:31.458Z,97.75
2022-08-07T02:07:23.937Z,97.90
2022-08-07T02:08:25.061Z,98.00
2022-08-07T02:09:37.467Z,98.00
2022-08-07T02:10:26.635Z,97.90
2022-08-07T02:11:30.958Z,98.11
2022-08-07T02:12:29.344Z,98.11
2022-08-07T02:13:56.498Z,98.21
2022-08-07T02:14:36.263Z,98.21
2022-08-07T02:15:28.246Z,98.41
2022-08-07T02:16:28.550Z,98.31
2022-08-07T02:17:27.913Z,98.41
2022-08-07T02:18:30.246Z,98.41
2022-08-07T02:20:05.587Z,98.41
2022-08-07T02:20:31.027Z,98.41
2022-08-07T02:21:28.765Z,98.36
2022-08-07T02:22:28.141Z,98.16
2022-08-07T02:23:30.536Z,98.06
2022-08-07T02:24:29.817Z,97.96
2022-08-07T02:26:10.792Z,97.96
2022-08-07T02:26:33.904Z,97.96
2022-08-07T02:27:34.268Z,97.96
2022-08-07T02:28:29.800Z,98.06
2022-08-07T02:29:29.068Z,98.00
2022-08-07T02:30:29.358Z,98.11
2022-08-07T02:31:32.780Z,98.21
2022-08-07T02:32:30.345Z,98.21
2022-08-07T02:33:33.060Z,98.21
2022-08-07T02:34:31.427Z,98.21
2022-08-07T02:36:28.564Z,98.27
2022-08-07T02:36:32.916Z,98.16
2022-08-07T02:37:34.154Z,98.16
2022-08-07T02:38:33.039Z,98.16
2022-08-07T02:39:43.755Z,98.16
2022-08-07T02:40:35.268Z,98.06
2022-08-07T02:41:33.637Z,97.96
2022-08-07T02:42:33.569Z,97.75
2022-08-07T02:43:35.042Z,97.65
2022-08-07T02:44:34.798Z,97.65
2022-08-07T02:45:59.408Z,97.55
2022-08-07T02:46:34.887Z,97.45
2022-08-07T02:47:45.548Z,97.45
2022-08-07T02:48:39.321Z,97.34
2022-08-07T02:49:58.092Z,97.45
2022-08-07T02:50:37.981Z,97.30
2022-08-07T02:51:42.938Z,97.20
2022-08-07T02:52:36.631Z,97.20
2022-08-07T02:53:39.801Z,97.20
2022-08-07T02:54:38.051Z,97.24
2022-08-07T02:56:03.127Z,97.45
2022-08-07T02:56:37.796Z,97.65
2022-08-07T02:57:37.117Z,97.55
2022-08-07T02:58:39.836Z,97.65
2022-08-07T02:59:40.272Z,97.86
2022-08-07T03:00:39.123Z,98.00
2022-08-07T03:01:40.190Z,98.11
2022-08-07T03:02:42.068Z,98.31
2022-08-07T03:03:48.929Z,98.41
2022-08-07T03:04:41.184Z,98.52
2022-08-07T03:05:39.527Z,98.52
2022-08-07T03:06:39.828Z,98.31
2022-08-07T03:07:43.259Z,98.41
2022-08-07T03:08:42.344Z,98.72
2022-08-07T03:09:48.278Z,98.93
2022-08-07T03:10:46.933Z,99.02
2022-08-07T03:11:52.697Z,99.02
2022-08-07T03:12:42.514Z,99.23
2022-08-07T03:13:49.384Z,99.23
2022-08-07T03:14:43.911Z,99.23
2022-08-07T03:15:54.099Z,99.33
2022-08-07T03:16:44.386Z,99.13
2022-08-07T03:17:53.243Z,99.02
2022-08-07T03:18:45.615Z,98.93
2022-08-07T03:19:54.608Z,98.82
2022-08-07T03:20:45.537Z,98.82
2022-08-07T03:21:50.413Z,98.82
2022-08-07T03:22:50.384Z,98.82
2022-08-07T03:24:20.465Z,98.72
2022-08-07T03:24:45.884Z,98.72
2022-08-07T03:25:46.082Z,98.77
2022-08-07T03:26:57.941Z,98.68
2022-08-07T03:28:08.993Z,98.57
2022-08-07T03:28:48.987Z,98.47
2022-08-07T03:29:50.736Z,98.47
2022-08-07T03:30:48.396Z,98.36
2022-08-07T03:31:50.019Z,98.27
2022-08-07T03:32:57.127Z,98.27
2022-08-07T03:33:49.153Z,98.27
2022-08-07T03:35:16.643Z,98.27
2022-08-07T03:35:50.521Z,98.16
2022-08-07T03:36:52.988Z,98.16
2022-08-07T03:37:54.107Z,98.16
2022-08-07T03:38:53.658Z,98.27
2022-08-07T03:39:59.976Z,98.27
2022-08-07T03:40:57.127Z,98.27
2022-08-07T03:41:53.186Z,98.27
2022-08-07T03:42:51.615Z,98.41
2022-08-07T03:43:57.085Z,98.31
2022-08-07T03:44:53.419Z,98.31
2022-08-07T03:45:53.695Z,98.41
2022-08-07T03:47:13.003Z,98.52
2022-08-07T03:47:54.284Z,98.41
2022-08-07T03:49:02.772Z,98.41
2022-08-07T03:49:53.602Z,98.41
2022-08-07T03:50:57.694Z,98.31
2022-08-07T03:51:57.339Z,98.31
2022-08-07T03:52:53.770Z,98.31
2022-08-07T03:54:33.664Z,98.31
2022-08-07T03:54:59.028Z,98.21
2022-08-07T03:56:03.726Z,98.21
2022-08-07T03:57:03.457Z,98.27
2022-08-07T03:58:33.345Z,98.16
2022-08-07T03:59:08.326Z,98.16
2022-08-07T04:00:02.894Z,98.06
2022-08-07T04:00:59.650Z,98.06
2022-08-07T04:01:57.361Z,97.86
2022-08-07T04:02:57.469Z,97.96
2022-08-07T04:03:58.159Z,97.86
2022-08-07T04:04:56.467Z,97.96
2022-08-07T04:05:59.896Z,97.96
2022-08-07T04:07:00.804Z,97.96
2022-08-07T04:07:57.269Z,97.96
2022-08-07T04:09:01.433Z,98.02
2022-08-07T04:09:57.858Z,97.91
2022-08-07T04:12:25.547Z,97.71
2022-08-07T04:12:26.521Z,97.50
2022-08-07T04:12:59.819Z,97.25
2022-08-07T04:14:10.927Z,97.16
2022-08-07T04:15:00.450Z,97.05
2022-08-07T04:15:59.411Z,97.16
2022-08-07T04:17:03.234Z,97.25
2022-08-07T04:18:56.633Z,97.00
2022-08-07T04:19:12.750Z,96.39
2022-08-07T04:20:03.165Z,96.35
2022-08-07T04:21:00.753Z,96.25
2022-08-07T04:22:08.666Z,96.15
2022-08-07T04:23:06.415Z,96.25
2022-08-07T04:24:07.418Z,96.66
2022-08-07T04:25:03.534Z,96.66
2022-08-07T04:26:03.627Z,96.76
2022-08-07T04:27:04.475Z,97.16
2022-08-07T04:28:02.779Z,97.37
2022-08-07T04:29:03.289Z,97.47
2022-08-07T04:30:04.603Z,97.37
2022-08-07T04:31:03.720Z,97.32
2022-08-07T04:32:10.270Z,97.32
2022-08-07T04:33:07.339Z,97.32
2022-08-07T04:34:06.444Z,97.02
2022-08-07T04:35:06.302Z,96.92
2022-08-07T04:36:07.083Z,96.77
2022-08-07T04:37:05.744Z,96.77
2022-08-07T04:38:11.513Z,96.87
2022-08-07T04:39:05.954Z,96.97
2022-08-07T04:40:06.175Z,96.77
2022-08-07T04:41:08.384Z,96.77
2022-08-07T04:42:07.727Z,96.97
2022-08-07T04:43:10.895Z,96.87
2022-08-07T04:44:12.689Z,96.67
2022-08-07T04:45:08.625Z,96.87
2022-08-07T04:46:12.419Z,96.67
2022-08-07T04:47:09.217Z,96.67
2022-08-07T04:48:11.633Z,96.81
2022-08-07T04:49:17.923Z,96.81
2022-08-07T04:50:10.838Z,96.92
2022-08-07T04:51:09.579Z,96.92
2022-08-07T04:52:09.727Z,97.12
2022-08-07T04:53:16.481Z,97.12
2022-08-07T04:54:11.338Z,97.12
2022-08-07T04:55:15.675Z,97.22
2022-08-07T04:58:10.608Z,97.02
2022-08-07T04:58:23.669Z,97.12
2022-08-07T04:58:33.850Z,96.92
2022-08-07T05:00:09.666Z,97.02
2022-08-07T05:00:17.397Z,97.02
2022-08-07T05:01:18.097Z,97.02
2022-08-07T05:02:17.003Z,97.02
2022-08-07T05:03:17.134Z,97.02
2022-08-07T05:04:17.802Z,97.02
2022-08-07T05:05:52.077Z,97.02
2022-08-07T05:06:20.128Z,96.92
2022-08-07T05:07:20.609Z,96.92
2022-08-07T05:08:16.778Z,96.92
2022-08-07T05:09:17.674Z,97.02
2022-08-07T05:10:16.808Z,96.92
2022-08-07T05:11:19.090Z,96.92
2022-08-07T05:12:27.322Z,96.97
2022-08-07T05:14:53.404Z,96.97
2022-08-07T05:14:54.050Z,96.87
2022-08-07T05:15:22.978Z,96.87
2022-08-07T05:16:18.277Z,96.77
2022-08-07T05:17:51.644Z,96.67
2022-08-07T05:18:19.503Z,96.67
2022-08-07T05:19:20.294Z,96.77
2022-08-07T05:20:19.427Z,96.67
2022-08-07T05:21:17.895Z,96.56
2022-08-07T05:22:27.617Z,96.52
2022-08-07T05:23:23.047Z,96.52
2022-08-07T05:24:24.602Z,96.42
2022-08-07T05:25:26.126Z,96.22
2022-08-07T05:26:24.113Z,96.22
2022-08-07T05:28:16.942Z,96.11
2022-08-07T05:28:26.785Z,96.11
2022-08-07T05:29:23.172Z,96.11
2022-08-07T05:30:32.835Z,96.11
2022-08-07T05:31:22.983Z,96.01
2022-08-07T05:32:21.865Z,96.01
2022-08-07T05:33:23.014Z,96.01
2022-08-07T05:34:26.400Z,95.97
2022-08-07T05:35:33.051Z,96.07
2022-08-07T05:36:30.590Z,95.76
2022-08-07T05:37:25.284Z,95.76
2022-08-07T05:38:58.338Z,95.66
2022-08-07T05:40:05.401Z,95.76
2022-08-07T05:40:24.191Z,95.86
2022-08-07T05:41:23.447Z,95.97
2022-08-07T05:42:33.856Z,95.86
2022-08-07T05:43:49.832Z,95.76
2022-08-07T05:44:29.336Z,95.82
2022-08-07T05:45:46.843Z,95.72
2022-08-07T05:46:27.622Z,95.62
2022-08-07T05:47:37.864Z,95.62
2022-08-07T05:48:26.527Z,95.41
2022-08-07T05:49:41.024Z,95.51
2022-08-07T05:50:28.488Z,95.51
2022-08-07T05:51:31.627Z,95.62
2022-08-07T05:52:32.573Z,95.51
2022-08-07T05:54:09.429Z,95.51
2022-08-07T05:54:44.193Z,95.57
2022-08-07T05:56:03.042Z,95.57
2022-08-07T05:56:30.219Z,95.47
2022-08-07T05:57:30.161Z,95.47
2022-08-07T05:58:36.885Z,95.37
2022-08-07T05:59:30.015Z,95.47
2022-08-07T06:00:29.365Z,95.57
2022-08-07T06:01:35.640Z,95.37
2022-08-07T06:02:31.769Z,95.37
2022-08-07T06:03:53.804Z,95.37
2022-08-07T06:04:31.328Z,95.37
2022-08-07T06:05:31.717Z,95.47
2022-08-07T06:06:32.643Z,95.37
2022-08-07T06:08:14.725Z,95.26
2022-08-07T06:10:04.745Z,95.37
2022-08-07T06:10:30.006Z,95.37
2022-08-07T06:11:31.161Z,95.47
2022-08-07T06:12:32.979Z,95.47
2022-08-07T06:14:12.114Z,95.42
2022-08-07T06:14:33.106Z,95.42
2022-08-07T06:15:39.518Z,95.42
2022-08-07T06:16:31.674Z,95.32
2022-08-07T06:17:38.174Z,95.32
2022-08-07T06:18:32.285Z,95.12
2022-08-07T06:19:47.826Z,94.92
2022-08-07T06:20:50.452Z,95.02
2022-08-07T06:22:15.598Z,94.98
2022-08-07T06:22:39.068Z,94.58
2022-08-07T06:24:37.300Z,92.51
2022-08-07T06:24:45.763Z,91.20
2022-08-07T06:25:34.798Z,89.30
2022-08-07T06:26:35.548Z,88.79
2022-08-07T06:27:59.631Z,87.04
2022-08-07T06:28:36.897Z,88.13
2022-08-07T06:29:38.911Z,89.24
2022-08-07T06:30:35.710Z,87.95
2022-08-07T06:31:46.743Z,85.60
2022-08-07T06:32:38.365Z,84.15
2022-08-07T06:33:35.627Z,82.15
2022-08-07T06:34:45.106Z,81.71
2022-08-07T06:35:45.619Z,81.13
2022-08-07T06:36:37.407Z,79.38
2022-08-07T06:37:44.245Z,78.47
2022-08-07T06:38:37.968Z,79.11
2022-08-07T06:40:17.881Z,78.78
2022-08-07T06:40:38.597Z,78.54
2022-08-07T06:42:02.628Z,78.10
2022-08-07T06:42:39.117Z,77.29
2022-08-07T06:43:39.664Z,77.43
2022-08-07T06:44:39.929Z,78.58
2022-08-07T06:45:39.078Z,78.54
2022-08-07T06:46:40.333Z,78.44
2022-08-07T06:47:57.121Z,78.88
2022-08-07T06:48:42.096Z,79.58
2022-08-07T06:49:50.957Z,79.22
2022-08-07T06:50:43.355Z,80.26
2022-08-07T06:51:49.628Z,80.43
2022-08-07T06:52:42.049Z,79.11
2022-08-07T06:54:11.703Z,79.62
2022-08-07T06:55:31.196Z,79.72
2022-08-07T06:56:00.949Z,78.47
2022-08-07T06:56:49.394Z,79.14
2022-08-07T06:57:50.013Z,78.12
2022-08-07T07:00:11.364Z,74.81
2022-08-07T07:00:13.502Z,75.58
2022-08-07T07:00:46.259Z,75.51
2022-08-07T07:01:50.658Z,75.62
2022-08-07T07:02:48.839Z,75.68
2022-08-07T07:03:49.273Z,75.58
2022-08-07T07:04:55.084Z,75.24
2022-08-07T07:06:03.342Z,73.80
2022-08-07T07:07:00.814Z,74.27
2022-08-07T07:07:59.472Z,76.15
2022-08-07T07:08:47.138Z,77.77
2022-08-07T07:09:47.613Z,77.70
2022-08-07T07:10:47.569Z,76.72
2022-08-07T07:12:09.983Z,76.45
2022-08-07T07:12:48.868Z,77.43
2022-08-07T07:13:58.654Z,79.42
2022-08-07T07:14:50.057Z,80.77
2022-08-07T07:15:51.385Z,79.90
2022-08-07T07:16:51.162Z,80.64
2022-08-07T07:17:50.671Z,81.08
2022-08-07T07:18:48.756Z,80.98
2022-08-07T07:19:57.590Z,80.18
2022-08-07T07:20:51.651Z,79.97
2022-08-07T07:22:11.976Z,78.72
2022-08-07T07:24:06.265Z,79.23
2022-08-07T07:24:10.799Z,79.73
2022-08-07T07:24:57.002Z,79.33
2022-08-07T07:26:34.515Z,79.02
2022-08-07T07:26:52.287Z,76.45
2022-08-07T07:27:58.524Z,72.53
2022-08-07T07:29:38.594Z,69.76
2022-08-07T07:30:08.880Z,71.59
2022-08-07T07:30:52.508Z,70.79
2022-08-07T07:31:53.691Z,72.56
2022-08-07T07:32:52.149Z,72.71
2022-08-07T07:33:56.973Z,73.24
2022-08-07T07:34:54.584Z,72.20
2022-08-07T07:36:04.985Z,72.50
2022-08-07T07:36:56.250Z,73.41
2022-08-07T07:38:02.718Z,70.32
2022-08-07T07:38:54.935Z,69.79
2022-08-07T07:39:56.044Z,68.55
2022-08-07T07:41:00.094Z,68.25
2022-08-07T07:42:13.037Z,68.65
2022-08-07T07:42:57.797Z,68.59
2022-08-07T07:44:14.525Z,67.52
2022-08-07T07:44:57.347Z,65.85
2022-08-07T07:46:40.263Z,67.92
2022-08-07T07:47:14.357Z,68.52
2022-08-07T07:47:58.326Z,66.78
2022-08-07T07:48:59.885Z,66.45
2022-08-07T07:50:35.829Z,67.05
2022-08-07T07:50:59.669Z,66.72
2022-08-07T07:51:59.725Z,64.12
2022-08-07T07:52:59.666Z,66.45
2022-08-07T07:54:01.061Z,67.05
2022-08-07T07:54:59.179Z,67.65
2022-08-07T07:56:01.090Z,67.12
2022-08-07T07:56:59.744Z,67.12
2022-08-07T07:58:01.201Z,67.92
2022-08-07T07:59:01.626Z,66.45
2022-08-07T07:59:59.730Z,67.85
2022-08-07T08:01:03.039Z,64.92
2022-08-07T08:02:05.289Z,65.78
2022-08-07T08:03:05.341Z,63.98
2022-08-07T08:04:09.344Z,65.82
2022-08-07T08:05:03.087Z,65.42
2022-08-07T08:06:02.964Z,65.82
2022-08-07T08:07:07.983Z,63.95
2022-08-07T08:08:03.106Z,64.51
2022-08-07T08:09:04.483Z,63.61
2022-08-07T08:10:04.799Z,64.81
2022-08-07T08:11:08.608Z,64.78
2022-08-07T08:12:04.958Z,64.83
2022-08-07T08:13:03.479Z,62.39
2022-08-07T08:14:04.679Z,63.85
2022-08-07T08:15:06.917Z,63.65
2022-08-07T08:16:08.088Z,63.22
2022-08-07T08:17:55.405Z,64.03
2022-08-07T08:18:17.638Z,62.76
2022-08-07T08:19:09.722Z,61.69
2022-08-07T08:20:16.994Z,62.35
2022-08-07T08:21:07.565Z,63.65
2022-08-07T08:22:05.891Z,63.62
2022-08-07T08:23:08.324Z,64.55
2022-08-07T08:24:06.525Z,62.82
2022-08-07T08:25:18.509Z,63.89
2022-08-07T08:26:08.103Z,64.32
2022-08-07T08:27:09.252Z,64.42
2022-08-07T08:28:08.544Z,64.72
2022-08-07T08:29:08.294Z,65.08
2022-08-07T08:30:14.151Z,65.58
2022-08-07T08:31:14.692Z,65.58
2022-08-07T08:32:18.133Z,65.71
2022-08-07T08:33:16.135Z,67.22
2022-08-07T08:34:09.562Z,67.29
2022-08-07T08:35:11.743Z,67.42
2022-08-07T08:36:14.883Z,65.52
2022-08-07T08:37:59.219Z,64.51
2022-08-07T08:38:13.682Z,64.72
2022-08-07T08:39:11.014Z,64.28
2022-08-07T08:40:16.365Z,64.65
2022-08-07T08:41:14.463Z,63.18
2022-08-07T08:42:11.889Z,64.62
2022-08-07T08:43:16.177Z,65.22
2022-08-07T08:44:12.474Z,66.09
2022-08-07T08:45:13.224Z,64.09
2022-08-07T08:46:14.894Z,65.89
2022-08-07T08:47:13.838Z,65.72
2022-08-07T08:48:14.560Z,65.35
2022-08-07T08:49:13.986Z,65.08
2022-08-07T08:50:18.998Z,65.55
2022-08-07T08:51:29.660Z,65.82
2022-08-07T08:52:16.717Z,63.84
2022-08-07T08:53:16.658Z,63.87
2022-08-07T08:54:15.228Z,64.40
2022-08-07T08:55:21.306Z,65.91
2022-08-07T08:56:17.457Z,64.88
2022-08-07T08:57:17.910Z,65.05
2022-08-07T08:58:24.760Z,64.65
2022-08-07T08:59:17.499Z,65.28
2022-08-07T09:00:16.708Z,65.58
2022-08-07T09:01:19.282Z,64.95
2022-08-07T09:02:19.165Z,65.12
2022-08-07T09:03:20.244Z,64.92
2022-08-07T09:04:17.879Z,65.58
2022-08-07T09:05:26.403Z,66.25
2022-08-07T09:06:19.386Z,66.12
2022-08-07T09:07:24.465Z,64.25
2022-08-07T09:08:28.184Z,64.98
2022-08-07T09:09:21.052Z,65.98
2022-08-07T09:10:20.656Z,66.48
2022-08-07T09:11:25.006Z,66.38
2022-08-07T09:12:31.664Z,67.79
2022-08-07T09:13:37.953Z,65.68
2022-08-07T09:14:21.765Z,66.75
2022-08-07T09:16:25.929Z,64.75
2022-08-07T09:16:29.917Z,63.54
2022-08-07T09:17:24.385Z,64.54
2022-08-07T09:18:23.882Z,63.64
2022-08-07T09:19:50.865Z,65.12
2022-08-07T09:20:35.639Z,63.42
2022-08-07T09:21:34.322Z,64.84
2022-08-07T09:24:31.903Z,65.25
2022-08-07T09:24:32.666Z,64.45
2022-08-07T09:24:33.626Z,64.62
2022-08-07T09:25:28.046Z,64.95
2022-08-07T09:26:24.099Z,65.25
2022-08-07T09:27:24.403Z,63.95
2022-08-07T09:30:04.039Z,65.81
2022-08-07T09:30:05.705Z,63.57
2022-08-07T09:30:28.067Z,65.94
2022-08-07T09:31:27.353Z,66.64
2022-08-07T09:32:26.816Z,66.38
2022-08-07T09:33:53.143Z,66.08
2022-08-07T09:34:27.449Z,67.48
2022-08-07T09:36:04.630Z,67.45
2022-08-07T09:36:35.444Z,66.05
2022-08-07T09:37:28.264Z,68.02
2022-08-07T09:38:32.354Z,67.48
2022-08-07T09:39:54.730Z,67.25
2022-08-07T09:40:28.985Z,67.18
2022-08-07T09:41:28.193Z,67.01
2022-08-07T09:42:33.687Z,69.12
2022-08-07T09:44:03.164Z,69.52
2022-08-07T09:44:52.069Z,68.62
2022-08-07T09:47:25.582Z,68.68
2022-08-07T09:47:50.580Z,68.05
2022-08-07T09:47:59.018Z,67.78
2022-08-07T09:48:45.362Z,67.98
2022-08-07T09:50:18.641Z,68.65
2022-08-07T09:50:31.595Z,69.59
2022-08-07T09:52:15.352Z,69.26
2022-08-07T09:52:35.275Z,69.26
2022-08-07T09:53:41.399Z,68.72
2022-08-07T09:54:34.564Z,68.65
2022-08-07T09:56:04.422Z,67.82
2022-08-07T09:56:37.340Z,67.82
2022-08-07T09:57:32.522Z,66.35
2022-08-07T09:58:36.689Z,66.65
2022-08-07T09:59:46.314Z,66.65
2022-08-07T10:00:34.392Z,66.99
2022-08-07T10:01:53.044Z,67.69
2022-08-07T10:02:34.968Z,66.48
2022-08-07T10:04:04.833Z,67.08
2022-08-07T10:04:38.396Z,66.39
2022-08-07T10:05:59.419Z,65.72
2022-08-07T10:06:36.372Z,66.11
2022-08-07T10:07:52.334Z,67.52
2022-08-07T10:08:37.842Z,68.15
2022-08-07T10:09:58.921Z,67.52
2022-08-07T10:11:07.571Z,65.72
2022-08-07T10:12:01.049Z,66.58
2022-08-07T10:12:39.646Z,66.82
2022-08-07T10:14:00.612Z,68.45
2022-08-07T10:14:38.549Z,69.32
2022-08-07T10:15:44.833Z,67.15
2022-08-07T10:16:41.053Z,67.52
2022-08-07T10:18:02.746Z,66.22
2022-08-07T10:18:41.550Z,63.09
2022-08-07T10:19:40.602Z,63.95
2022-08-07T10:20:41.098Z,64.81
2022-08-07T10:22:14.306Z,66.09
2022-08-07T10:22:43.202Z,65.42
2022-08-07T10:24:06.071Z,66.88
2022-08-07T10:24:41.515Z,67.29
2022-08-07T10:25:43.628Z,67.29
2022-08-07T10:26:42.655Z,66.99
2022-08-07T10:27:46.074Z,66.95
2022-08-07T10:28:49.514Z,66.62
2022-08-07T10:29:45.965Z,65.62
2022-08-07T10:30:44.889Z,64.65
2022-08-07T10:31:42.197Z,65.08
2022-08-07T10:32:53.405Z,67.11
2022-08-07T10:34:06.461Z,66.78
2022-08-07T10:34:45.907Z,66.08
2022-08-07T10:35:55.723Z,65.38
2022-08-07T10:36:46.506Z,65.58
2022-08-07T10:38:00.597Z,64.07
2022-08-07T10:38:49.454Z,65.25
2022-08-07T10:39:57.666Z,64.81
2022-08-07T10:40:47.393Z,62.15
2022-08-07T10:41:54.583Z,62.42
2022-08-07T10:42:46.272Z,62.52
2022-08-07T10:43:47.570Z,63.12
2022-08-07T10:44:45.892Z,62.85
2022-08-07T10:45:58.324Z,64.65
2022-08-07T10:46:49.235Z,64.83
2022-08-07T10:47:53.528Z,63.39
2022-08-07T10:48:49.864Z,63.49
2022-08-07T10:49:50.742Z,63.26
2022-08-07T10:50:50.351Z,63.43
2022-08-07T10:52:01.962Z,61.51
2022-08-07T10:52:52.075Z,61.02
2022-08-07T10:53:48.345Z,64.28
2022-08-07T10:54:53.344Z,63.75
2022-08-07T10:55:49.863Z,63.18
2022-08-07T10:56:50.148Z,66.59
2022-08-07T10:57:56.402Z,66.32
2022-08-07T10:58:59.478Z,66.52
2022-08-07T10:59:50.915Z,65.25
2022-08-07T11:00:56.287Z,66.55
2022-08-07T11:02:05.421Z,67.05
2022-08-07T11:02:55.651Z,65.18
2022-08-07T11:03:52.956Z,67.18
2022-08-07T11:04:52.208Z,65.91
2022-08-07T11:05:51.498Z,65.71
2022-08-07T11:06:51.759Z,65.51
2022-08-07T11:07:59.236Z,65.31
2022-08-07T11:08:55.199Z,65.91
2022-08-07T11:10:07.948Z,66.05
2022-08-07T11:10:59.433Z,67.32
2022-08-07T11:11:54.040Z,66.01
2022-08-07T11:13:02.097Z,67.11
2022-08-07T11:14:44.340Z,66.18
2022-08-07T11:15:00.191Z,64.98
2022-08-07T11:15:55.245Z,65.38
2022-08-07T11:16:55.812Z,66.18
2022-08-07T11:18:03.757Z,66.82
2022-08-07T11:18:56.998Z,68.05
2022-08-07T11:19:57.244Z,68.55
2022-08-07T11:20:55.646Z,67.05
2022-08-07T11:21:55.886Z,68.55
2022-08-07T11:22:56.202Z,68.15
2022-08-07T11:23:57.286Z,67.88
2022-08-07T11:24:56.707Z,67.98
2022-08-07T11:26:06.435Z,67.85
2022-08-07T11:27:01.201Z,67.11
2022-08-07T11:28:01.349Z,66.05
2022-08-07T11:29:00.687Z,64.39
2022-08-07T11:30:17.566Z,65.89
2022-08-07T11:31:01.147Z,62.26
2022-08-07T11:32:00.306Z,64.76
2022-08-07T11:33:00.499Z,63.83
2022-08-07T11:34:00.118Z,64.23
2022-08-07T11:35:01.119Z,64.76
2022-08-07T11:36:00.542Z,65.09
2022-08-07T11:37:01.698Z,63.89
2022-08-07T11:38:10.455Z,65.52
2022-08-07T11:39:02.308Z,66.13
2022-08-07T11:40:03.586Z,63.09
2022-08-07T11:41:03.275Z,64.39
2022-08-07T11:42:03.479Z,66.02
2022-08-07T11:43:01.754Z,64.62
2022-08-07T11:44:12.253Z,64.89
2022-08-07T11:45:03.974Z,66.39
2022-08-07T11:46:02.279Z,65.36
2022-08-07T11:47:05.933Z,64.72
2022-08-07T11:48:06.061Z,63.42
2022-08-07T11:49:50.315Z,65.12
2022-08-07T11:50:30.530Z,64.36
2022-08-07T11:51:04.565Z,64.65
2022-08-07T11:52:05.751Z,64.55
2022-08-07T11:53:05.939Z,65.29
2022-08-07T11:54:10.196Z,62.66
2022-08-07T11:55:13.155Z,65.72
2022-08-07T11:56:13.954Z,66.06
2022-08-07T11:57:06.159Z,64.76
2022-08-07T11:58:13.161Z,63.46
2022-08-07T12:00:08.217Z,63.43
2022-08-07T12:00:10.444Z,64.96
2022-08-07T12:01:08.799Z,64.06
2022-08-07T12:02:17.804Z,63.63
2022-08-07T12:03:08.959Z,61.94
2022-08-07T12:04:09.573Z,60.91
2022-08-07T12:05:15.435Z,62.81
2022-08-07T12:06:37.120Z,61.82
2022-08-07T12:07:18.827Z,60.96
2022-08-07T12:08:25.413Z,61.38
2022-08-07T12:09:16.119Z,64.06
2022-08-07T12:10:12.470Z,64.36
2022-08-07T12:11:21.953Z,63.97
2022-08-07T12:12:12.171Z,63.78
2022-08-07T12:13:11.508Z,60.60
2022-08-07T12:14:11.042Z,58.98
2022-08-07T12:15:25.989Z,58.76
2022-08-07T12:16:13.644Z,60.03
2022-08-07T12:17:19.715Z,59.23
2022-08-07T12:18:12.298Z,59.51
2022-08-07T12:19:11.479Z,57.36
2022-08-07T12:20:29.558Z,56.62
2022-08-07T12:21:16.914Z,59.09
2022-08-07T12:22:39.355Z,61.11
2022-08-07T12:23:14.287Z,58.85
2022-08-07T12:24:37.358Z,59.35
2022-08-07T12:26:00.911Z,60.85
2022-08-07T12:26:23.574Z,60.05
2022-08-07T12:27:16.767Z,58.83
2022-08-07T12:28:14.399Z,59.92
2022-08-07T12:29:14.217Z,59.52
2022-08-07T12:30:15.997Z,60.22
2022-08-07T12:31:17.186Z,60.05
2022-08-07T12:32:18.204Z,61.80
2022-08-07T12:33:23.102Z,61.80
2022-08-07T12:34:16.549Z,63.13
2022-08-07T12:35:16.840Z,62.57
2022-08-07T12:36:16.127Z,60.99
2022-08-07T12:37:23.760Z,59.04
2022-08-07T12:38:36.832Z,58.91
2022-08-07T12:39:42.829Z,59.08
2022-08-07T12:40:46.423Z,58.54
2022-08-07T12:41:20.574Z,59.55
2022-08-07T12:42:17.832Z,62.60
2022-08-07T12:44:02.728Z,63.53
2022-08-07T12:44:19.350Z,64.36
2022-08-07T12:45:22.558Z,64.29
2022-08-07T12:46:26.539Z,65.52
2022-08-07T12:47:21.860Z,64.59
2022-08-07T12:48:28.265Z,66.26
2022-08-07T12:49:39.563Z,64.80
2022-08-07T12:50:38.808Z,63.20
2022-08-07T12:51:23.251Z,63.13
2022-08-07T12:52:23.439Z,65.13
2022-08-07T12:53:22.002Z,65.03
2022-08-07T12:54:36.974Z,64.33
2022-08-07T12:55:40.694Z,64.17
2022-08-07T12:56:22.590Z,62.27
2022-08-07T12:57:23.206Z,63.73
2022-08-07T12:58:22.146Z,64.23